Date,TemperatureHighF,TemperatureAvgF,TemperatureLowF,DewpointHighF,DewpointAvgF,DewpointLowF,HumidityHigh,HumidityAvg,HumidityLow,PressureMaxIn,PressureMinIn,WindSpeedMaxMPH,WindSpeedAvgMPH,GustSpeedMaxMPH,PrecipitationSumIn
2012-1-1,71,64,54,68,45,31,97,56,26,30.48,30.05,26,6,26,0.01
2012-1-2,65,53,43,38,33,28,71,48,27,30.66,30.48,20,3,20,0.00
2012-1-3,64,53,39,52,41,31,87,64,45,30.56,30.26,15,3,15,0.00
2012-1-4,74,62,50,60,56,46,93,80,59,30.26,30.12,23,5,23,0.00
2012-1-5,75,65,59,64,60,58,96,85,64,30.25,30.07,17,3,17,0.00
2012-1-6,74,64,55,62,58,52,94,83,59,30.07,29.90,22,5,22,0.00
2012-1-7,81,67,58,64,61,57,97,83,49,29.99,29.88,15,3,15,0.01
2012-1-8,77,69,62,68,65,61,97,88,72,29.97,29.84,30,6,30,0.01
2012-1-9,77,66,54,70,61,47,95,84,70,30.02,29.81,27,8,27,0.04
2012-1-10,66,54,43,47,37,29,80,56,33,30.06,29.88,23,7,23,0.00
2012-1-11,80,59,40,55,40,28,81,54,19,29.89,29.68,22,4,22,0.00
2012-1-12,63,51,40,54,25,9,85,40,17,30.26,29.74,33,7,33,0.00
2012-1-13,58,46,34,37,27,14,79,49,20,30.35,30.22,12,2,12,0.00
2012-1-14,67,52,38,46,36,26,88,61,22,30.39,30.27,13,2,13,0.00
2012-1-15,69,62,51,62,55,45,89,79,70,30.29,30.13,21,5,22,0.00
2012-1-16,77,69,62,68,65,60,96,86,70,30.14,29.94,30,9,32,0.01
2012-1-17,82,72,60,68,64,42,95,79,50,30.14,29.92,21,5,23,0.00
2012-1-18,62,56,48,53,41,34,79,59,49,30.26,30.04,28,5,28,0.00
2012-1-19,78,66,56,66,60,53,93,83,63,30.04,29.84,21,4,21,0.00
2012-1-20,79,71,67,68,67,65,95,87,69,29.87,29.75,26,8,26,0.00
2012-1-21,77,67,63,70,64,58,97,88,70,29.92,29.81,18,2,18,0.00
2012-1-22,79,71,65,69,67,62,96,88,71,29.84,29.71,26,5,26,0.00
2012-1-23,70,66,60,67,59,51,97,80,58,30.01,29.84,20,3,20,0.01
2012-1-24,76,71,65,71,68,62,96,90,79,29.92,29.71,30,8,30,0.01
2012-1-25,73,69,59,70,61,51,93,78,59,29.92,29.67,26,9,27,0.07
2012-1-26,75,59,46,52,41,31,84,57,21,30.06,29.92,21,5,21,0.00
2012-1-27,74,61,46,59,50,40,87,68,41,30.06,29.89,28,6,28,0.00
2012-1-28,70,62,57,59,49,35,95,65,42,30.34,29.98,28,6,28,0.00
2012-1-29,67,57,48,54,46,36,86,67,45,30.41,30.26,16,4,21,0.00
2012-1-30,70,64,58,64,60,54,93,87,73,30.26,30.07,20,4,20,0.00
2012-1-31,76,69,61,69,66,60,97,90,73,30.09,29.97,18,4,19,0.05
2012-2-1,80,70,66,71,67,64,97,90,67,30.07,29.97,14,3,14,0.01
2012-2-2,77,71,68,71,68,64,98,91,66,30.03,29.88,21,6,21,0.00
2012-2-3,79,73,69,71,69,68,96,89,72,29.93,29.83,30,9,30,0.00
2012-2-4,73,65,52,71,61,50,96,88,72,30.14,29.89,23,6,23,0.48
2012-2-5,52,50,47,50,44,41,95,81,70,30.29,30.11,26,7,26,1.16
2012-2-6,58,52,48,47,42,40,76,70,58,30.28,30.12,18,4,18,0.00
2012-2-7,66,59,54,55,50,43,81,73,63,30.21,30.07,9,2,11,0.00
2012-2-8,61,59,55,54,48,45,79,68,58,30.35,30.21,14,5,20,0.00
2012-2-9,58,54,51,56,50,46,95,86,74,30.26,30.06,15,4,15,0.11
2012-2-10,64,58,52,57,53,46,94,84,64,30.21,30.00,15,3,15,0.01
2012-2-11,60,52,47,47,40,34,91,66,47,30.41,30.20,18,4,18,0.00
2012-2-12,61,53,46,54,44,33,87,73,52,30.41,30.06,22,7,22,0.04
2012-2-13,63,59,52,62,56,50,97,90,76,30.06,29.84,21,4,21,0.08
2012-2-14,72,64,51,68,61,50,98,92,78,29.90,29.79,17,4,17,0.01
2012-2-15,81,72,65,71,68,63,97,89,67,29.95,29.79,18,4,18,0.00
2012-2-16,71,65,63,64,62,59,98,90,70,30.07,29.95,20,3,20,0.01
2012-2-17,70,66,62,69,64,60,97,94,83,29.98,29.77,18,3,18,0.14
2012-2-18,74,67,57,70,58,46,97,75,37,30.01,29.67,31,9,31,0.00
2012-2-19,65,57,49,53,48,44,86,72,53,30.15,29.99,23,3,23,0.00
2012-2-20,73,65,56,63,59,53,93,82,63,30.06,29.92,26,4,26,0.00
2012-2-21,78,69,61,67,64,60,97,85,58,30.10,29.95,18,4,18,0.00
2012-2-22,84,72,68,70,67,65,96,86,58,29.97,29.69,15,4,15,0.00
2012-2-23,79,72,68,71,68,67,97,88,72,29.69,29.55,17,4,17,0.01
2012-2-24,72,63,58,70,40,25,96,48,26,30.30,29.60,36,8,36,0.04
2012-2-25,59,52,44,47,41,29,92,66,35,30.42,30.19,19,4,19,0.45
2012-2-26,69,60,48,62,54,46,96,83,63,30.19,30.00,17,3,17,0.00
2012-2-27,67,65,64,66,63,62,98,94,85,30.12,30.02,17,3,17,0.03
2012-2-28,78,71,67,72,69,66,99,93,75,30.07,29.91,35,9,35,0.00
2012-2-29,79,72,68,70,68,67,97,88,71,29.96,29.85,23,8,28,0.00
2012-3-1,81,74,69,70,69,68,96,87,65,29.89,29.68,30,8,30,0.00
2012-3-2,83,74,67,71,69,66,97,87,67,29.68,29.58,20,6,20,0.00
2012-3-3,73,67,58,70,42,22,95,46,16,30.18,29.64,28,7,28,0.00
2012-3-4,76,60,45,50,38,29,74,49,18,30.27,30.14,21,4,21,0.00
2012-3-5,73,64,53,59,54,49,93,71,51,30.31,30.19,23,6,23,0.00
2012-3-6,76,70,64,64,59,55,85,71,50,30.22,29.99,37,11,37,0.00
2012-3-7,78,72,69,70,66,62,92,82,70,29.99,29.83,33,13,33,0.00
2012-3-8,80,73,70,71,70,68,94,88,73,30.04,29.79,35,11,35,0.00
2012-3-9,73,53,49,71,50,47,96,93,86,30.23,30.02,23,6,23,0.04
2012-3-10,56,52,48,54,50,47,97,94,88,30.21,29.99,13,2,13,0.04
2012-3-11,73,60,55,61,57,53,97,88,66,30.06,29.93,13,2,13,0.10
2012-3-12,79,68,61,70,66,60,98,93,73,30.07,29.95,15,3,15,0.01
2012-3-13,79,73,69,74,70,68,99,91,74,30.07,29.97,31,9,31,0.01
2012-3-14,79,74,71,71,70,68,97,89,72,30.07,29.97,30,10,30,0.00
2012-3-15,79,74,72,71,70,68,96,89,70,30.12,29.99,28,10,28,0.00
2012-3-16,80,74,71,70,70,68,95,87,71,30.08,29.95,29,10,29,0.00
2012-3-17,79,73,70,70,69,67,95,87,72,29.99,29.89,30,10,30,0.00
2012-3-18,78,74,72,72,71,69,96,90,76,29.97,29.79,34,11,34,0.00
2012-3-19,80,75,72,72,70,69,92,86,74,29.84,29.56,41,13,41,0.00
2012-3-20,74,69,61,70,59,49,95,73,50,29.84,29.49,32,7,32,0.20
2012-3-21,80,68,59,56,45,28,78,50,16,29.92,29.79,19,3,19,0.00
2012-3-22,82,68,53,63,54,44,92,65,29,29.93,29.81,26,5,26,0.00
2012-3-23,81,70,58,68,64,58,99,85,58,29.98,29.87,14,4,15,0.00
2012-3-24,80,74,69,69,68,65,96,84,61,29.98,29.90,18,3,18,0.00
2012-3-25,83,74,67,70,67,64,96,81,58,30.01,29.92,15,3,15,0.00
2012-3-26,81,72,64,69,65,60,97,79,56,30.02,29.91,19,5,19,0.01
2012-3-27,79,74,68,69,67,64,91,82,68,30.01,29.91,23,8,25,0.00
2012-3-28,82,75,72,71,69,66,92,83,66,29.96,29.84,26,8,26,0.00
2012-3-29,84,76,71,72,71,68,94,84,65,29.89,29.74,25,6,25,0.00
2012-3-30,88,76,68,71,65,60,92,72,44,29.84,29.71,28,5,28,0.00
2012-3-31,88,78,73,72,70,58,95,81,39,29.84,29.75,25,6,25,0.00
2012-4-1,82,76,72,73,72,70,96,86,69,29.78,29.64,26,7,27,0.00
2012-4-2,83,76,65,74,71,62,96,84,73,29.70,29.51,31,10,32,0.33
2012-4-3,86,78,75,75,73,72,95,85,70,29.73,29.58,25,8,25,0.00
2012-4-4,87,79,73,74,72,69,96,81,58,29.79,29.65,14,2,14,0.00
2012-4-5,97,80,70,74,70,54,98,76,24,29.81,29.68,15,3,18,0.01
2012-4-6,84,77,71,73,70,62,97,80,52,29.98,29.77,15,4,15,0.01
2012-4-7,82,76,73,70,68,65,89,77,62,30.09,29.92,20,6,20,0.00
2012-4-8,81,76,72,68,66,64,82,72,58,30.16,30.08,19,4,19,0.00
2012-4-9,81,73,63,65,62,58,93,70,50,30.13,30.02,20,4,20,0.00
2012-4-10,81,74,64,67,63,59,91,71,50,30.07,29.97,21,4,21,0.00
2012-4-11,83,77,73,70,69,66,88,76,59,30.02,29.91,26,8,26,0.00
2012-4-12,82,77,74,70,68,66,86,76,61,29.98,29.84,27,10,27,0.00
2012-4-13,82,78,74,73,71,68,88,80,73,29.91,29.81,31,11,31,0.00
2012-4-14,83,79,76,74,72,69,88,81,67,29.86,29.70,37,14,37,0.00
2012-4-15,88,80,77,75,73,72,89,80,65,29.83,29.65,35,13,35,0.00
2012-4-16,79,73,67,75,70,65,97,90,78,30.00,29.80,20,4,20,1.32
2012-4-17,84,72,65,68,65,59,92,80,53,30.13,29.98,19,4,19,0.00
2012-4-18,83,74,67,67,61,52,87,66,42,30.11,29.97,14,3,14,0.00
2012-4-19,81,72,59,65,61,56,92,69,49,29.98,29.76,20,5,20,0.00
2012-4-20,81,73,68,70,66,58,89,78,67,29.92,29.67,20,4,20,0.00
2012-4-21,81,70,60,58,48,36,78,51,20,29.99,29.89,20,5,21,0.00
2012-4-22,86,70,54,59,53,44,85,58,29,30.07,29.95,12,2,12,0.00
2012-4-23,79,70,61,60,57,52,84,65,42,30.14,30.01,20,4,20,0.00
2012-4-24,80,72,63,67,63,60,94,74,53,30.03,29.90,25,6,25,0.00
2012-4-25,84,77,71,71,69,66,88,77,63,29.91,29.81,30,8,30,0.00
2012-4-26,84,77,71,72,70,67,93,80,62,29.87,29.80,30,10,30,0.00
2012-4-27,84,77,71,71,69,67,92,78,57,29.83,29.74,37,12,37,0.00
2012-4-28,82,78,74,74,72,69,92,81,65,29.83,29.74,28,10,29,0.00
2012-4-29,82,78,74,74,72,70,92,84,69,29.89,29.77,28,10,28,0.00
2012-4-30,84,79,76,74,73,70,92,82,66,29.93,29.84,27,9,27,0.00
2012-5-1,84,78,75,73,72,70,90,80,65,29.92,29.77,25,8,25,0.00
2012-5-2,86,79,74,73,72,69,94,79,62,29.85,29.77,21,6,21,0.00
2012-5-3,86,80,74,74,72,69,93,79,61,29.92,29.80,20,6,20,0.00
2012-5-4,89,81,75,75,73,69,94,80,54,29.93,29.81,26,6,26,0.00
2012-5-5,86,80,77,76,74,73,91,83,71,29.89,29.75,28,10,28,0.00
2012-5-6,85,80,75,75,73,71,92,81,65,29.87,29.75,23,7,23,0.00
2012-5-7,86,80,75,75,73,70,94,79,60,29.83,29.70,21,6,21,0.00
2012-5-8,80,76,71,75,71,65,92,83,74,29.90,29.76,25,5,25,0.14
2012-5-9,86,77,69,70,67,63,88,73,50,29.94,29.81,17,4,18,0.00
2012-5-10,83,76,66,75,71,61,96,84,66,29.84,29.65,26,6,26,1.73
2012-5-11,88,76,66,74,70,65,97,84,61,29.89,29.65,19,3,19,0.22
2012-5-12,90,81,74,76,72,64,96,75,50,30.04,29.89,15,2,15,0.00
2012-5-13,86,77,70,67,65,60,83,66,45,30.11,29.98,15,4,15,0.00
2012-5-14,85,76,68,69,66,60,92,71,47,30.04,29.89,18,3,18,0.00
2012-5-15,84,74,70,71,67,64,88,79,59,30.00,29.84,23,2,23,0.07
2012-5-16,86,76,67,67,64,62,88,70,48,30.02,29.92,13,3,13,0.00
2012-5-17,88,76,66,67,64,56,89,67,37,29.98,29.88,15,2,15,0.00
2012-5-18,86,77,68,71,68,65,92,75,54,29.91,29.81,20,4,20,0.00
2012-5-19,86,80,74,71,69,65,87,71,53,29.92,29.82,20,6,20,0.00
2012-5-20,87,80,75,71,69,66,83,70,53,30.03,29.89,18,5,18,0.00
2012-5-21,89,78,68,70,67,64,92,71,47,30.07,29.99,14,2,14,0.00
2012-5-22,89,78,68,70,67,58,93,71,38,30.00,29.80,20,4,20,0.00
2012-5-23,86,80,74,73,71,69,85,74,64,29.80,29.60,35,9,35,0.00
2012-5-24,86,81,77,74,72,71,83,75,65,29.71,29.58,32,12,32,0.00
2012-5-25,86,82,78,76,74,72,88,79,69,29.90,29.70,28,11,29,0.00
2012-5-26,86,82,78,76,74,72,92,79,65,29.95,29.87,23,8,23,0.00
2012-5-27,86,81,76,74,72,69,86,75,62,29.91,29.81,23,8,23,0.00
2012-5-28,87,81,76,75,73,70,91,77,60,29.86,29.78,22,8,22,0.00
2012-5-29,90,83,78,77,75,72,92,77,57,29.87,29.77,22,7,22,0.00
2012-5-30,88,82,77,76,75,73,92,80,66,29.83,29.69,26,8,26,0.00
2012-5-31,89,83,79,76,75,74,88,78,66,29.82,29.63,25,9,27,0.00
2012-6-1,91,82,77,77,74,71,91,75,55,29.90,29.75,19,3,19,0.00
2012-6-2,90,82,76,76,74,73,91,78,60,29.89,29.78,28,7,28,0.00
2012-6-3,88,82,78,76,75,72,91,79,59,29.90,29.77,27,8,27,0.00
2012-6-4,89,82,79,77,76,74,92,81,66,29.87,29.71,22,7,22,0.00
2012-6-5,93,83,77,78,75,72,94,79,52,29.76,29.67,22,3,22,0.00
2012-6-6,92,83,75,75,74,72,91,75,54,29.79,29.69,22,4,22,0.00
2012-6-7,94,84,77,76,73,67,90,72,43,29.84,29.74,18,4,18,0.00
2012-6-8,90,82,77,74,72,66,85,72,47,29.84,29.75,14,3,14,0.00
2012-6-9,95,83,77,74,72,69,88,72,45,29.79,29.66,18,3,18,0.00
2012-6-10,92,84,79,78,76,73,90,78,60,29.79,29.69,26,8,26,0.00
2012-6-11,91,85,81,79,78,76,88,79,64,29.91,29.76,27,9,27,0.00
2012-6-12,90,85,81,79,76,74,88,77,62,29.98,29.88,22,8,22,0.00
2012-6-13,91,85,80,78,76,71,89,75,54,29.94,29.81,25,7,26,0.00
2012-6-14,90,84,79,76,74,72,86,74,57,29.88,29.80,31,9,31,0.00
2012-6-15,90,84,80,76,74,72,85,73,58,29.91,29.81,26,8,26,0.00
2012-6-16,91,83,80,76,75,73,85,75,57,29.94,29.86,22,6,22,0.00
2012-6-17,91,84,77,75,73,70,88,71,55,29.95,29.79,18,4,18,0.00
2012-6-18,92,83,76,75,73,67,90,72,50,29.83,29.70,25,6,25,0.00
2012-6-19,90,84,81,77,74,71,83,72,58,29.83,29.74,30,9,30,0.02
2012-6-20,88,83,78,76,74,70,87,75,62,29.86,29.79,22,6,22,0.02
2012-6-21,88,80,73,77,73,69,96,82,62,29.92,29.83,17,2,17,0.40
2012-6-22,94,84,76,75,71,63,92,67,39,29.88,29.77,16,3,16,0.00
2012-6-23,94,84,75,76,72,68,88,68,45,29.84,29.76,18,3,18,0.00
2012-6-24,97,86,78,78,74,70,91,70,44,29.89,29.80,15,3,15,0.00
2012-6-25,104,89,76,75,71,64,86,60,30,29.84,29.71,13,2,14,0.00
2012-6-26,105,90,77,73,69,63,77,55,27,29.75,29.66,19,3,19,0.00
2012-6-27,96,88,78,76,71,62,78,59,37,29.87,29.70,19,4,19,0.00
2012-6-28,93,86,80,77,75,72,87,71,51,29.97,29.87,20,5,20,0.00
2012-6-29,92,84,78,78,76,70,92,76,57,29.94,29.76,21,5,21,0.05
2012-6-30,85,80,73,77,73,70,93,81,65,29.84,29.75,17,4,19,0.36
2012-7-1,90,82,75,78,75,69,92,79,54,29.93,29.79,26,6,26,0.00
2012-7-2,89,85,82,77,75,73,83,73,62,30.00,29.89,27,8,27,0.00
2012-7-3,90,84,80,77,75,72,86,74,60,29.98,29.86,25,6,25,0.00
2012-7-4,90,85,80,77,75,73,81,72,60,29.95,29.86,26,8,26,0.00
2012-7-5,90,85,80,77,75,74,85,73,61,29.96,29.89,23,7,25,0.00
2012-7-6,91,84,77,76,75,72,90,73,54,29.98,29.88,20,5,21,0.00
2012-7-7,92,85,78,76,74,70,89,71,53,29.97,29.89,20,4,20,0.00
2012-7-8,92,85,78,76,74,70,89,71,50,29.97,29.87,22,5,22,0.00
2012-7-9,92,85,80,77,75,72,84,72,54,29.92,29.81,25,6,25,0.00
2012-7-10,88,84,81,77,75,74,82,76,66,29.89,29.78,20,4,20,0.00
2012-7-11,91,83,81,78,76,71,86,78,51,29.88,29.80,19,3,19,0.00
2012-7-12,90,84,76,78,76,69,90,78,56,29.90,29.81,17,3,17,0.05
2012-7-13,87,82,76,79,76,70,92,83,66,29.95,29.83,19,3,19,0.77
2012-7-14,92,83,77,78,76,66,95,79,55,29.95,29.85,20,3,20,0.00
2012-7-15,90,84,78,77,76,74,91,78,62,29.96,29.86,21,5,21,0.00
2012-7-16,88,83,79,77,76,73,91,79,65,29.94,29.85,19,4,19,0.00
2012-7-17,86,83,80,77,76,74,88,80,68,29.92,29.84,17,4,17,0.00
2012-7-18,91,84,80,79,76,73,92,78,59,29.96,29.88,25,5,26,0.00
2012-7-19,92,85,80,78,76,72,90,75,55,30.05,29.96,20,5,23,0.00
2012-7-20,93,85,78,78,75,71,92,74,53,30.04,29.92,23,5,23,0.00
2012-7-21,95,84,75,76,74,62,93,75,37,29.99,29.87,22,5,22,0.00
2012-7-22,92,84,77,77,75,72,91,74,53,29.98,29.89,22,6,22,0.00
2012-7-23,91,86,80,78,76,72,89,73,54,30.01,29.96,18,6,20,0.00
2012-7-24,92,86,80,77,75,68,89,71,48,30.01,29.89,22,6,23,0.00
2012-7-25,92,85,80,77,75,72,87,73,56,29.95,29.81,30,8,30,0.00
2012-7-26,90,85,82,78,76,73,84,75,60,29.90,29.81,29,9,29,0.00
2012-7-27,91,86,82,78,76,72,85,74,56,30.01,29.86,27,7,27,0.00
2012-7-28,93,85,78,78,76,74,92,75,56,30.05,29.95,21,4,21,0.00
2012-7-29,96,86,78,77,75,63,92,73,37,30.03,29.91,25,5,25,0.00
2012-7-30,92,85,78,77,76,70,90,74,53,29.99,29.87,23,6,23,0.00
2012-7-31,93,85,79,77,75,71,91,73,50,29.97,29.87,19,6,25,0.00
2012-8-1,93,85,78,76,74,69,90,73,48,29.94,29.83,25,6,25,0.00
2012-8-2,90,83,78,76,75,70,90,77,55,29.87,29.78,25,6,25,0.00
2012-8-3,91,85,80,77,75,71,88,74,54,29.87,29.78,25,7,25,0.00
2012-8-4,91,85,80,78,76,72,89,74,56,29.95,29.83,26,7,26,0.00
2012-8-5,90,84,79,78,75,69,91,76,54,30.04,29.93,14,2,14,0.00
2012-8-6,94,84,77,78,75,71,93,75,51,30.03,29.90,19,3,19,0.00
2012-8-7,94,85,77,77,74,68,92,72,46,29.93,29.83,17,4,17,0.00
2012-8-8,94,86,78,77,75,71,91,72,48,29.93,29.84,20,4,20,0.00
2012-8-9,93,85,79,78,76,72,91,74,52,29.93,29.83,20,4,20,0.02
2012-8-10,95,86,78,78,75,68,92,73,44,29.90,29.77,22,5,22,0.00
2012-8-11,95,86,78,78,75,67,92,73,44,29.89,29.81,19,4,23,0.00
2012-8-12,93,85,78,77,76,72,91,75,55,29.92,29.83,18,5,22,0.00
2012-8-13,94,86,80,79,76,72,91,74,51,29.97,29.87,22,5,22,0.00
2012-8-14,93,85,78,78,75,69,88,73,47,29.96,29.81,23,6,23,0.00
2012-8-15,93,85,80,77,75,69,90,72,50,29.89,29.78,32,8,32,0.00
2012-8-16,92,86,80,78,76,71,89,74,55,29.93,29.84,25,7,25,0.00
2012-8-17,94,86,80,79,76,72,92,75,51,29.95,29.81,23,6,23,0.00
2012-8-18,93,86,80,78,76,71,90,74,51,29.88,29.71,27,6,27,0.00
2012-8-19,90,82,79,80,76,75,90,82,63,29.85,29.78,18,2,18,0.12
2012-8-20,96,85,77,77,74,63,94,73,39,29.90,29.80,15,3,15,0.00
2012-8-21,93,84,76,77,74,69,93,75,48,29.91,29.83,22,3,22,0.00
2012-8-22,94,85,79,76,74,70,85,71,47,29.95,29.85,19,3,19,0.00
2012-8-23,94,85,78,77,74,72,88,73,51,29.93,29.83,19,4,19,0.00
2012-8-24,92,84,78,77,74,66,90,73,44,29.88,29.77,30,7,30,0.00
2012-8-25,91,85,81,77,76,72,86,74,54,29.86,29.78,28,8,30,0.00
2012-8-26,92,85,80,77,75,72,88,73,54,29.94,29.83,22,7,22,0.00
2012-8-27,96,85,76,76,74,72,91,71,46,29.97,29.83,17,2,17,0.00
2012-8-28,98,87,78,74,72,68,85,64,40,29.86,29.70,14,2,14,0.00
2012-8-29,103,90,80,75,70,57,74,55,25,29.74,29.58,17,3,17,0.00
2012-8-30,104,89,79,79,69,60,84,56,24,29.75,29.62,21,4,21,0.00
2012-8-31,93,86,82,80,77,73,88,74,52,29.93,29.75,20,7,23,0.00
2012-9-1,93,85,79,79,76,69,91,74,51,30.01,29.92,30,6,30,0.00
2012-9-2,93,85,79,78,75,70,89,72,47,29.99,29.88,26,6,26,0.00
2012-9-3,93,85,79,77,76,74,90,75,58,29.95,29.83,26,6,26,0.00
2012-9-4,93,85,79,78,75,73,92,75,55,29.92,29.80,25,6,25,0.00
2012-9-5,92,85,78,77,75,71,90,74,54,29.86,29.76,23,6,23,0.00
2012-9-6,92,85,78,78,76,73,91,76,56,29.90,29.80,25,5,25,0.00
2012-9-7,93,84,77,78,75,72,92,76,53,29.87,29.74,21,5,21,0.00
2012-9-8,101,85,77,77,74,64,92,72,37,29.94,29.78,17,2,17,0.00
2012-9-9,91,82,76,69,65,60,74,58,37,30.04,29.93,20,4,20,0.00
2012-9-10,91,79,68,69,64,54,82,62,31,30.04,29.93,17,3,17,0.00
2012-9-11,91,81,71,76,71,65,84,73,53,29.98,29.90,17,2,17,0.00
2012-9-12,93,84,78,78,76,72,92,76,52,29.97,29.87,27,6,27,0.00
2012-9-13,92,84,78,78,73,63,89,71,42,30.01,29.88,26,6,26,0.00
2012-9-14,86,78,72,76,73,69,92,84,66,30.10,29.98,20,3,20,0.36
2012-9-15,87,77,72,73,70,67,89,79,60,30.09,29.98,17,4,17,0.00
2012-9-16,83,76,72,75,72,70,95,87,66,30.01,29.86,12,1,12,0.77
2012-9-17,89,77,70,71,69,67,95,78,51,29.89,29.72,12,2,12,0.00
2012-9-18,92,80,71,74,70,65,94,73,43,29.96,29.81,16,3,16,0.01
2012-9-19,91,80,71,72,69,66,88,70,45,30.04,29.94,14,2,14,0.00
2012-9-20,91,80,70,71,64,51,91,62,26,30.01,29.92,12,2,15,0.00
2012-9-21,90,77,66,67,62,55,91,64,33,29.95,29.86,13,2,16,0.00
2012-9-22,92,80,71,74,71,66,90,74,53,30.02,29.91,18,2,18,0.00
2012-9-23,92,82,75,77,73,70,93,76,52,30.09,30.01,19,3,19,0.00
2012-9-24,89,82,73,74,72,68,91,72,52,30.09,29.95,20,4,20,0.00
2012-9-25,90,83,79,73,71,67,80,67,48,29.99,29.87,23,7,23,0.00
2012-9-26,89,83,77,75,72,70,80,71,55,29.94,29.87,20,6,20,0.00
2012-9-27,89,82,77,78,74,71,92,78,61,30.00,29.88,19,4,19,0.89
2012-9-28,88,81,76,77,75,73,91,82,62,29.94,29.81,21,5,21,0.05
2012-9-29,91,80,74,79,76,71,96,87,59,29.84,29.62,26,3,26,2.14
2012-9-30,84,77,73,71,66,63,86,68,52,29.80,29.69,16,4,22,0.00
2012-10-1,86,74,67,66,59,52,90,63,37,29.86,29.75,23,3,23,0.03
2012-10-2,86,73,64,66,58,46,94,65,27,29.92,29.84,19,2,19,0.00
2012-10-3,87,76,62,74,65,57,88,70,43,29.95,29.88,25,5,25,0.00
2012-10-4,88,82,78,75,73,71,87,75,63,30.04,29.94,30,8,30,0.00
2012-10-5,87,79,73,73,70,68,92,75,56,30.04,29.92,18,4,19,0.00
2012-10-6,89,78,69,70,68,66,92,72,51,29.95,29.84,17,2,17,0.00
2012-10-7,76,67,62,68,59,55,83,74,65,30.09,29.92,25,7,25,0.00
2012-10-8,72,65,58,61,53,48,80,66,54,30.16,30.03,20,5,20,0.00
2012-10-9,84,76,67,73,68,61,88,77,62,30.04,29.89,22,5,22,0.00
2012-10-10,89,81,76,78,75,72,95,81,60,30.01,29.89,19,4,19,0.00
2012-10-11,86,81,77,77,75,73,92,81,67,30.06,29.97,27,7,27,0.07
2012-10-12,86,81,75,76,74,72,93,81,69,30.08,29.99,22,7,23,0.00
2012-10-13,86,82,79,76,74,72,84,77,69,30.03,29.86,31,9,31,0.00
2012-10-14,86,82,77,74,72,69,85,74,59,29.98,29.86,20,5,20,0.00
2012-10-15,87,79,75,73,68,62,91,72,46,30.01,29.89,13,2,13,0.00
2012-10-16,88,80,76,74,71,67,88,74,54,29.92,29.69,15,3,15,0.00
2012-10-17,95,83,75,75,72,67,88,73,41,29.73,29.55,23,6,23,0.00
2012-10-18,90,80,75,78,73,64,95,80,63,29.85,29.64,19,3,19,0.00
2012-10-19,84,77,73,66,62,56,74,59,45,29.96,29.85,17,3,17,0.00
2012-10-20,87,80,73,75,73,64,92,79,65,29.87,29.75,27,6,27,0.00
2012-10-21,87,81,76,76,74,71,92,79,60,29.88,29.80,28,7,28,0.00
2012-10-22,86,81,76,77,74,71,92,80,64,29.91,29.83,27,7,27,0.00
2012-10-23,85,80,76,71,70,68,81,72,60,29.91,29.84,21,7,21,0.00
2012-10-24,86,79,70,72,69,65,91,72,53,29.92,29.81,21,5,21,0.00
2012-10-25,88,80,72,74,72,69,90,77,62,29.84,29.75,23,6,23,0.00
2012-10-26,79,68,57,74,60,48,92,75,57,30.13,29.84,27,7,27,0.00
2012-10-27,66,59,54,49,42,37,73,54,37,30.21,30.03,26,7,26,0.00
2012-10-28,70,61,53,46,41,33,76,49,29,30.20,30.10,16,4,16,0.00
2012-10-29,74,63,52,51,46,38,81,55,30,30.21,30.07,13,2,13,0.00
2012-10-30,79,67,54,63,57,49,91,71,49,30.07,29.91,20,4,20,0.00
2012-10-31,83,74,66,72,68,63,94,82,64,29.98,29.89,18,3,18,0.25
2012-11-1,83,75,68,74,70,67,96,85,62,30.01,29.92,18,3,19,0.26
2012-11-2,84,76,66,72,68,63,96,78,50,29.98,29.87,22,5,22,0.01
2012-11-3,85,77,69,74,69,61,95,79,57,30.00,29.89,39,5,39,0.00
2012-11-4,85,73,68,70,66,64,93,80,54,30.04,29.95,19,2,19,0.03
2012-11-5,86,74,64,73,69,63,97,85,58,30.02,29.89,14,2,14,0.01
2012-11-6,82,73,62,71,57,43,94,60,25,30.08,29.92,16,2,16,0.00
2012-11-7,86,70,56,66,58,49,88,70,29,30.13,30.00,17,3,17,0.00
2012-11-8,82,74,64,67,64,60,92,71,54,30.09,29.97,28,6,28,0.00
2012-11-9,82,77,74,67,65,63,77,67,54,30.03,29.93,32,9,32,0.00
2012-11-10,82,77,72,69,66,63,77,69,55,29.99,29.85,30,9,30,0.00
2012-11-11,84,78,75,71,69,66,87,73,58,30.01,29.78,33,8,33,0.00
2012-11-12,76,65,58,70,45,31,90,50,30,30.36,30.00,26,8,26,0.00
2012-11-13,62,58,55,55,47,35,86,67,45,30.36,30.20,21,6,21,0.06
2012-11-14,64,60,56,46,42,35,65,51,36,30.32,30.22,17,4,17,0.00
2012-11-15,67,64,60,58,49,38,76,61,43,30.24,30.11,14,3,14,0.00
2012-11-16,69,63,55,55,49,37,83,60,32,30.26,30.16,17,3,17,0.00
2012-11-17,73,62,54,58,53,47,87,73,58,30.30,30.21,15,2,15,0.00
2012-11-18,77,66,56,61,57,47,95,74,48,30.22,30.12,19,3,19,0.00
2012-11-19,78,68,59,63,59,56,93,75,52,30.18,30.08,15,2,15,0.00
2012-11-20,78,69,61,64,62,59,94,80,58,30.16,30.07,12,2,12,0.00
2012-11-21,79,68,59,66,62,57,96,82,57,30.20,30.10,15,2,15,0.01
2012-11-22,80,70,58,66,61,57,96,77,52,30.13,30.01,23,5,25,0.01
2012-11-23,81,73,66,67,64,58,89,74,53,30.24,30.05,14,3,15,0.09
2012-11-24,70,63,53,60,44,32,82,54,28,30.31,30.12,20,5,20,0.00
2012-11-25,75,65,52,68,58,45,92,78,62,30.13,29.89,13,3,13,0.00
2012-11-26,81,72,65,70,67,62,95,83,65,30.04,29.87,23,4,23,0.00
2012-11-27,72,64,56,66,51,45,91,64,48,30.28,30.01,20,6,20,0.05
2012-11-28,70,60,51,57,52,46,90,78,62,30.37,30.21,12,3,12,0.00
2012-11-29,78,67,58,65,60,55,93,81,61,30.23,30.05,13,2,13,0.00
2012-11-30,81,72,65,70,67,63,95,85,66,30.10,30.00,17,5,20,0.00
2012-12-1,81,74,70,72,69,68,95,84,65,30.08,29.98,25,7,25,0.00
2012-12-2,81,74,69,70,68,65,94,83,60,30.09,30.00,21,6,22,0.00
2012-12-3,81,73,67,71,67,63,96,83,55,30.01,29.91,26,6,26,0.01
2012-12-4,84,74,68,73,69,64,96,84,51,30.09,29.96,19,3,19,0.27
2012-12-5,77,67,59,66,56,48,94,71,38,30.16,29.99,14,3,14,0.00
2012-12-6,76,64,51,66,60,50,97,86,59,29.99,29.80,13,2,13,0.01
2012-12-7,81,72,67,71,67,66,96,85,62,29.82,29.71,23,5,23,0.01
2012-12-8,80,74,70,70,69,68,94,85,69,29.83,29.75,25,6,25,0.00
2012-12-9,79,74,70,73,70,68,95,88,72,29.86,29.72,25,5,25,0.00
2012-12-10,74,58,50,72,37,21,95,51,27,30.07,29.75,32,7,32,0.00
2012-12-11,54,50,45,34,30,24,61,47,33,30.17,30.03,18,4,18,0.00
2012-12-12,64,51,40,44,35,25,86,57,25,30.28,30.16,13,2,13,0.00
2012-12-13,68,61,47,61,54,43,96,77,55,30.22,30.09,18,3,18,0.00
2012-12-14,75,71,67,68,65,60,88,80,70,30.10,29.86,28,9,28,0.01
2012-12-15,77,73,70,71,70,67,95,90,82,29.89,29.78,21,4,22,0.00
2012-12-16,83,74,70,73,69,62,96,84,63,29.81,29.67,19,3,19,0.00
2012-12-17,80,68,58,62,47,33,84,53,19,29.95,29.78,19,3,19,0.00
2012-12-18,80,67,51,70,60,50,96,80,43,29.90,29.75,25,7,25,0.01
2012-12-19,80,74,72,71,70,69,94,87,73,29.78,29.63,35,10,35,0.00
2012-12-20,73,59,42,71,25,8,93,32,13,30.43,29.72,31,8,31,0.01
2012-12-21,58,48,34,42,26,14,72,46,21,30.49,30.30,9,2,9,0.00
2012-12-22,73,63,52,62,54,41,92,73,54,30.31,30.05,26,5,26,0.00
2012-12-23,79,70,62,65,63,60,93,79,53,30.06,29.84,25,6,25,0.00
2012-12-24,80,70,62,68,64,60,95,83,57,29.91,29.67,19,4,19,0.00
2012-12-25,79,69,43,68,47,23,93,56,13,30.09,29.55,31,9,31,0.00
2012-12-26,54,43,36,41,28,22,77,56,41,30.24,30.05,14,4,20,0.00
2012-12-27,58,53,48,53,48,39,89,82,72,30.07,29.74,14,4,14,0.00
2012-12-28,72,60,49,56,46,33,95,65,25,30.12,29.70,19,5,19,0.00
2012-12-29,54,47,40,36,26,21,65,45,28,30.41,30.09,23,6,23,0.00
2012-12-30,65,56,46,61,44,27,87,66,47,30.37,30.09,22,4,22,0.00
2012-12-31,74,69,65,67,65,60,94,86,76,30.08,29.83,15,5,22,0.01
2013-1-1,70,62,50,68,56,43,94,84,70,30.13,29.80,25,6,25,0.05